createdAt,value
2022-09-02T00:01:24.591Z,101735.31
2022-09-02T00:06:14.742Z,101734.44
2022-09-02T00:11:06.694Z,101735.38
2022-09-02T00:16:00.252Z,101727.56
2022-09-02T00:20:51.261Z,101718.91
2022-09-02T00:25:42.325Z,101716.34
2022-09-02T00:30:33.149Z,101719.91
2022-09-02T00:35:26.277Z,101710.31
2022-09-02T00:40:17.238Z,101703.38
2022-09-02T00:45:08.748Z,101707.75
2022-09-02T00:49:59.065Z,101699.13
2022-09-02T00:54:53.160Z,101694.84
2022-09-02T00:59:49.703Z,101697.47
2022-09-02T01:04:39.599Z,101697.53
2022-09-02T01:09:32.350Z,101687.06
2022-09-02T01:14:28.585Z,101696.69
2022-09-02T01:19:23.285Z,101684.50
2022-09-02T01:24:16.260Z,101689.84
2022-09-02T01:29:06.361Z,101688.97
2022-09-02T01:33:56.793Z,101685.50
2022-09-02T01:38:48.327Z,101689.88
2022-09-02T01:43:41.426Z,101683.78
2022-09-02T01:48:32.295Z,101675.09
2022-09-02T01:53:24.459Z,101669.06
2022-09-02T01:58:16.389Z,101667.38
2022-09-02T02:03:09.364Z,101666.53
2022-09-02T02:07:59.957Z,101667.44
2022-09-02T02:12:50.569Z,101668.44
2022-09-02T02:17:44.740Z,101658.06
2022-09-02T02:22:38.539Z,101665.00
2022-09-02T02:27:29.275Z,101663.34
2022-09-02T02:32:26.520Z,101643.41
2022-09-02T02:37:21.092Z,101653.84
2022-09-02T02:42:17.634Z,101658.34
2022-09-02T02:47:08.566Z,101658.34
2022-09-02T02:51:59.382Z,101656.59
2022-09-02T02:56:50.931Z,101652.31
2022-09-02T03:01:44.551Z,101647.97
2022-09-02T03:06:36.363Z,101648.91
2022-09-02T03:11:28.634Z,101639.38
2022-09-02T03:16:20.479Z,101636.84
2022-09-02T03:21:16.427Z,101631.25
2022-09-02T03:26:13.492Z,101640.22
2022-09-02T03:31:04.366Z,101642.00
2022-09-02T03:35:55.308Z,101632.47
2022-09-02T03:40:48.989Z,101629.88
2022-09-02T03:45:42.153Z,101631.69
2022-09-02T03:50:37.066Z,101624.78
2022-09-02T03:55:28.663Z,101617.84
2022-09-02T04:00:24.307Z,101616.16
2022-09-02T04:05:16.013Z,101611.84
2022-09-02T04:10:08.873Z,101610.19
2022-09-02T04:15:01.070Z,101605.88
2022-09-02T04:19:53.900Z,101604.16
2022-09-02T04:24:44.217Z,101593.78
2022-09-02T04:29:34.839Z,101596.44
2022-09-02T04:34:25.012Z,101591.22
2022-09-02T04:39:18.855Z,101584.28
2022-09-02T04:44:10.126Z,101593.88
2022-09-02T04:49:04.121Z,101598.28
2022-09-02T04:53:56.042Z,101597.44
2022-09-02T04:58:50.567Z,101590.47
2022-09-02T05:03:44.128Z,101592.19
2022-09-02T05:08:36.684Z,101593.94
2022-09-02T05:13:29.579Z,101593.09
2022-09-02T05:18:24.592Z,101601.84
2022-09-02T05:23:16.691Z,101598.41
2022-09-02T05:28:09.275Z,101607.13
2022-09-02T05:33:00.366Z,101608.00
2022-09-02T05:37:58.684Z,101596.69
2022-09-02T05:42:51.372Z,101594.94
2022-09-02T05:47:41.787Z,101599.28
2022-09-02T05:52:32.664Z,101592.34
2022-09-02T05:57:26.147Z,101594.06
2022-09-02T06:02:21.460Z,101597.56
2022-09-02T06:07:13.755Z,101597.56
2022-09-02T06:12:09.016Z,101601.09
2022-09-02T06:17:03.179Z,101593.25
2022-09-02T06:22:11.605Z,101597.63
2022-09-02T06:27:03.497Z,101588.84
2022-09-02T06:31:55.306Z,101597.56
2022-09-02T06:36:51.942Z,101589.72
2022-09-02T06:41:44.624Z,101593.13
2022-09-02T06:46:38.003Z,101588.69
2022-09-02T06:51:30.562Z,101582.56
2022-09-02T06:56:26.159Z,101581.69
2022-09-02T07:01:21.823Z,101573.91
2022-09-02T07:06:13.224Z,101580.81
2022-09-02T07:11:09.479Z,101572.09
2022-09-02T07:16:01.659Z,101572.06
2022-09-02T07:20:52.027Z,101567.63
2022-09-02T07:25:46.837Z,101565.84
2022-09-02T07:30:37.242Z,101565.75
2022-09-02T07:35:35.893Z,101567.44
2022-09-02T07:40:26.811Z,101565.59
2022-09-02T07:45:18.377Z,101565.47
2022-09-02T07:50:20.250Z,101568.84
2022-09-02T07:55:18.901Z,101566.94
2022-09-02T08:00:12.713Z,101567.69
2022-09-02T08:05:10.185Z,101565.75
2022-09-02T08:10:01.401Z,101568.88
2022-09-02T08:14:54.574Z,101557.31
2022-09-02T08:19:45.207Z,101563.13
2022-09-02T08:24:35.512Z,101554.97
2022-09-02T08:29:25.051Z,101555.47
2022-09-02T08:34:17.748Z,101552.41
2022-09-02T08:39:08.108Z,101557.22
2022-09-02T08:43:59.982Z,101550.84
2022-09-02T08:48:53.021Z,101559.13
2022-09-02T08:53:51.317Z,101547.34
2022-09-02T08:58:42.699Z,101544.88
2022-09-02T09:03:37.033Z,101538.34
2022-09-02T09:08:31.845Z,101542.50
2022-09-02T09:13:40.766Z,101542.09
2022-09-02T09:18:35.546Z,101542.47
2022-09-02T09:23:34.000Z,101537.69
2022-09-02T09:28:28.273Z,101540.50
2022-09-02T09:33:24.245Z,101533.88
2022-09-02T09:38:15.717Z,101538.41
2022-09-02T09:43:16.315Z,101528.03
2022-09-02T09:48:19.324Z,101522.13
2022-09-02T09:53:19.130Z,101525.69
2022-09-02T09:58:12.582Z,101524.69
2022-09-02T10:03:04.087Z,101529.84
2022-09-02T10:07:59.447Z,101526.53
2022-09-02T10:12:50.416Z,101514.22
2022-09-02T10:17:44.629Z,101519.63
2022-09-02T10:22:58.434Z,101509.22
2022-09-02T10:27:56.363Z,101504.84
2022-09-02T10:32:56.212Z,101495.78
2022-09-02T10:38:01.027Z,101497.34
2022-09-02T10:43:00.080Z,101493.59
2022-09-02T10:47:54.788Z,101495.50
2022-09-02T10:52:56.791Z,101495.28
2022-09-02T10:57:49.524Z,101491.63
2022-09-02T11:02:45.024Z,101487.03
2022-09-02T11:07:39.402Z,101484.97
2022-09-02T11:12:32.057Z,101476.03
2022-09-02T11:17:24.913Z,101470.81
2022-09-02T11:22:25.517Z,101463.75
2022-09-02T11:27:39.018Z,101461.03
2022-09-02T11:32:34.444Z,101451.19
2022-09-02T11:37:33.002Z,101447.84
2022-09-02T11:42:29.878Z,101445.50
2022-09-02T11:47:45.540Z,101440.75
2022-09-02T11:52:58.134Z,101429.91
2022-09-02T11:57:54.346Z,101425.72
2022-09-02T12:02:48.572Z,101423.56
2022-09-02T12:07:52.247Z,101418.41
2022-09-02T12:12:56.756Z,101422.13
2022-09-02T12:18:17.405Z,101407.16
2022-09-02T12:23:10.436Z,101388.94
2022-09-02T12:28:13.696Z,101397.41
2022-09-02T12:33:15.226Z,101389.44
2022-09-02T12:38:19.589Z,101375.22
2022-09-02T12:43:27.839Z,101371.50
2022-09-02T12:48:30.311Z,101370.03
2022-09-02T12:53:32.771Z,101383.47
2022-09-02T12:58:25.570Z,101373.53
2022-09-02T13:03:28.369Z,101368.28
2022-09-02T13:08:32.504Z,101357.00
2022-09-02T13:13:44.625Z,101356.06
2022-09-02T13:18:54.503Z,101349.03
2022-09-02T13:23:55.517Z,101344.31
2022-09-02T13:29:04.705Z,101341.66
2022-09-02T13:34:05.606Z,101336.91
2022-09-02T13:38:56.301Z,101333.69
2022-09-02T13:43:46.977Z,101335.56
2022-09-02T13:48:41.094Z,101323.81
2022-09-02T13:53:49.258Z,101327.41
2022-09-02T13:58:47.555Z,101318.59
2022-09-02T14:03:37.440Z,101319.19
2022-09-02T14:08:29.409Z,101308.88
2022-09-02T14:13:22.206Z,101311.00
2022-09-02T14:18:14.522Z,101299.78
2022-09-02T14:23:08.143Z,101289.16
2022-09-02T14:27:58.830Z,101277.94
2022-09-02T14:32:50.896Z,101265.06
2022-09-02T14:37:51.641Z,101275.31
2022-09-02T14:42:48.317Z,101264.97
2022-09-02T14:47:40.004Z,101263.16
2022-09-02T14:52:33.510Z,101250.03
2022-09-02T14:57:28.428Z,101256.03
2022-09-02T15:02:33.681Z,101251.19
2022-09-02T15:07:23.283Z,101254.91
2022-09-02T15:12:20.057Z,101253.78
2022-09-02T15:17:12.092Z,101249.03
2022-09-02T15:22:02.479Z,101236.66
2022-09-02T15:26:53.349Z,101239.63
2022-09-02T15:31:48.396Z,101235.44
2022-09-02T15:36:40.991Z,101232.22
2022-09-02T15:41:32.306Z,101223.94
2022-09-02T15:46:24.131Z,101221.34
2022-09-02T15:51:18.062Z,101215.38
2022-09-02T15:56:08.669Z,101210.72
2022-09-02T16:00:59.124Z,101201.00
2022-09-02T16:05:49.385Z,101201.56
2022-09-02T16:10:42.493Z,101194.63
2022-09-02T16:15:34.468Z,101190.94
2022-09-02T16:20:25.761Z,101187.25
2022-09-02T16:25:15.641Z,101191.69
2022-09-02T16:30:08.963Z,101187.53
2022-09-02T16:34:59.099Z,101183.63
2022-09-02T16:39:50.051Z,101177.09
2022-09-02T16:44:41.749Z,101179.47
2022-09-02T16:49:34.830Z,101171.38
2022-09-02T16:54:30.681Z,101172.56
2022-09-02T16:59:22.384Z,101154.28
2022-09-02T17:04:17.176Z,101152.81
2022-09-02T17:09:10.582Z,101153.19
2022-09-02T17:14:02.285Z,101158.06
2022-09-02T17:18:53.788Z,101155.06
2022-09-02T17:23:45.164Z,101155.84
2022-09-02T17:28:47.043Z,101150.19
2022-09-02T17:33:37.245Z,101149.84
2022-09-02T17:38:27.656Z,101148.81
2022-09-02T17:43:18.069Z,101153.06
2022-09-02T17:48:35.403Z,101150.97
2022-09-02T17:53:24.306Z,101151.63
2022-09-02T17:58:16.990Z,101155.00
2022-09-02T18:03:28.978Z,101152.13
2022-09-02T18:08:28.598Z,101142.97
2022-09-02T18:13:22.251Z,101139.22
2022-09-02T18:18:14.154Z,101141.63
2022-09-02T18:23:19.393Z,101139.38
2022-09-02T18:28:22.908Z,101148.53
2022-09-02T18:33:28.092Z,101146.44
2022-09-02T18:38:30.272Z,101143.44
2022-09-02T18:43:27.734Z,101144.91
2022-09-02T18:48:19.963Z,101148.78
2022-09-02T18:53:13.292Z,101156.13
2022-09-02T18:58:09.217Z,101154.91
2022-09-02T19:03:05.507Z,101154.63
2022-09-02T19:08:13.357Z,101162.06
2022-09-02T19:13:04.861Z,101164.25
2022-09-02T19:17:55.359Z,101172.63
2022-09-02T19:22:51.601Z,101165.03
2022-09-02T19:27:43.420Z,101169.00
2022-09-02T19:32:35.111Z,101165.16
2022-09-02T19:37:26.101Z,101162.94
2022-09-02T19:42:23.966Z,101159.97
2022-09-02T19:48:03.110Z,101163.84
2022-09-02T19:52:25.625Z,101168.53
2022-09-02T19:57:18.713Z,101167.00
2022-09-02T20:02:09.035Z,101172.63
2022-09-02T20:07:00.444Z,101178.81
2022-09-02T20:11:51.445Z,101174.66
2022-09-02T20:16:44.948Z,101166.97
2022-09-02T20:21:38.609Z,101175.13
2022-09-02T20:26:35.429Z,101172.84
2022-09-02T20:31:32.109Z,101170.47
2022-09-02T20:36:32.071Z,101169.81
2022-09-02T20:41:27.601Z,101167.38
2022-09-02T20:46:24.860Z,101173.81
2022-09-02T20:51:19.457Z,101163.38
2022-09-02T20:56:20.944Z,101155.84
2022-09-02T21:01:11.915Z,101160.59
2022-09-02T21:06:03.706Z,101162.69
2022-09-02T21:10:57.302Z,101164.63
2022-09-02T21:15:52.234Z,101161.28
2022-09-02T21:20:47.329Z,101158.09
2022-09-02T21:25:44.169Z,101161.00
2022-09-02T21:30:38.891Z,101155.97
2022-09-02T21:35:35.040Z,101157.88
2022-09-02T21:40:28.940Z,101155.47
2022-09-02T21:45:22.299Z,101148.66
2022-09-02T21:50:18.688Z,101151.44
2022-09-02T21:55:22.287Z,101149.03
2022-09-02T22:00:16.134Z,101144.81
2022-09-02T22:05:09.819Z,101151.25
2022-09-02T22:10:05.998Z,101135.75
2022-09-02T22:15:03.116Z,101129.84
2022-09-02T22:19:58.033Z,101138.84
2022-09-02T22:24:48.530Z,101134.66
2022-09-02T22:29:44.509Z,101135.75
2022-09-02T22:34:42.415Z,101132.53
2022-09-02T22:39:36.058Z,101138.00
2022-09-02T22:44:55.147Z,101139.19
2022-09-02T22:50:10.738Z,101133.31
2022-09-02T22:55:00.847Z,101126.56
2022-09-02T23:00:02.062Z,101132.88
2022-09-02T23:05:06.508Z,101121.56
2022-09-02T23:09:59.236Z,101126.09
2022-09-02T23:14:57.732Z,101121.97
2022-09-02T23:19:53.959Z,101122.03
2022-09-02T23:24:49.760Z,101123.06
2022-09-02T23:29:41.709Z,101116.16
2022-09-02T23:34:41.684Z,101118.06
2022-09-02T23:39:44.454Z,101116.47
2022-09-02T23:44:37.250Z,101104.34
2022-09-02T23:49:33.982Z,101099.16
2022-09-02T23:54:32.245Z,101096.66
2022-09-02T23:59:30.675Z,101093.31
